Latest Coastal Weather Observations for Wadeye (Port Keats)

IDD60701

Issued at 1:11 pm CST Saturday 2 July 2016 (issued every 10 minutes, with the page automatically refreshed every 10 minutes)

About coastal observations | Map of coastal stations | Coastal observations for NT | Marine services | Other Formats
Station Details ID: 014948 Name: PORT KEATS AIRPORT Lat: -14.25 Lon: 129.53 Height: 28.0 m
Data from the previous 72 hours. | See also: Recent months at Wadeye (Port Keats)
Date/Time
CST
Temp
°C
Wind Pressure Rain since
9am
mm
Weather Cloud Vis
km
Sea
Height
m
Swell
Dir  Spd
kts
Gust
kts
hPa Trend Height
m
Period
s
Dir
02/01:00pm 29.9 ESE 12 19 - - 0.0 - - - - - - -
02/12:30pm 29.1 ESE 13 19 - - 0.0 - - - - - - -
02/12:00pm 28.5 E 11 20 - - 0.0 - - - - - - -
02/11:30am 28.2 E 12 19 - - 0.0 - - - - - - -
02/11:00am 27.2 ESE 10 16 - - 0.0 - - - - - - -
02/10:30am 26.8 ESE 9 15 - - 0.0 - - - - - - -
02/10:00am 26.1 ESE 11 16 - - 0.0 - - - - - - -
02/09:30am 25.1 ESE 9 13 - - 0.0 - - - - - - -
02/09:00am 24.0 ESE 8 12 - - 0.0 - - - - - - -
02/08:30am 22.8 SE 8 11 - - 0.0 - - - - - - -
02/08:00am 21.9 SE 8 11 - - 0.0 - - - - - - -
02/07:30am 21.1 SE 7 9 - - 0.0 - - - - - - -
02/07:00am 21.8 ESE 7 9 - - 0.0 - - - - - - -
02/06:30am 22.1 SE 7 10 - - 0.0 - - - - - - -
02/06:00am 22.7 ESE 8 9 - - 0.0 - - - - - - -
02/05:30am 22.6 SE 9 12 - - 0.0 - - - - - - -
02/05:00am 23.3 ESE 8 11 - - 0.0 - - - - - - -
02/04:30am 23.7 ESE 8 11 - - 0.0 - - - - - - -
02/04:00am 23.8 SE 8 11 - - 0.0 - - - - - - -
02/03:30am 22.4 SE 6 8 - - 0.0 - - - - - - -
02/03:00am 19.3 SSE 4 5 - - 0.0 - - - - - - -
02/02:30am 21.4 SSE 5 7 - - 0.0 - - - - - - -
02/02:00am 23.8 SE 6 8 - - 0.0 - - - - - - -
02/01:30am 23.6 SE 6 7 - - 0.0 - - - - - - -
02/01:00am 24.0 SE 6 7 - - 0.0 - - - - - - -
02/12:30am 19.1 SSE 5 6 - - 0.0 - - - - - - -
02/12:00am 19.7 SSE 3 4 - - 0.0 - - - - - - -
 
Date/Time
CST
Temp
°C
Wind Pressure Rain since
9am
mm
Weather Cloud Vis
km
Sea
Height
m
Swell
Dir  Spd
kts
Gust
kts
hPa Trend Height
m
Period
s
Dir
01/11:30pm 20.6 SSE 4 4 - - 0.0 - - - - - - -
01/11:00pm 21.3 SSE 4 5 - - 0.0 - - - - - - -
01/10:30pm 25.9 ESE 6 8 - - 0.0 - - - - - - -
01/10:00pm 26.0 ESE 5 7 - - 0.0 - - - - - - -
01/09:30pm 21.5 ESE 5 6 - - 0.0 - - - - - - -
01/09:00pm 21.6 CALM 0 0 - - 0.0 - - - - - - -
01/08:30pm 22.4 CALM 0 0 - - 0.0 - - - - - - -
01/08:00pm 23.5 CALM 0 0 - - 0.0 - - - - - - -
01/07:30pm 25.0 CALM 0 0 - - 0.0 - - - - - - -
01/07:00pm 25.7 CALM 0 4 - - 0.0 - - - - - - -
01/06:30pm 28.2 SSE 1 5 - - 0.0 - - - - - - -
01/06:00pm 30.6 SE 4 6 - - 0.0 - - - - - - -
01/05:30pm 31.3 SE 7 11 - - 0.0 - - - - - - -
01/05:00pm 31.8 SE 9 13 - - 0.0 - - - - - - -
01/04:30pm 32.2 SSE 9 14 - - 0.0 - - - - - - -
01/04:00pm 32.5 SSE 8 11 - - 0.0 - - - - - - -
01/03:30pm 32.7 SE 10 13 - - 0.0 - - - - - - -
01/03:00pm 31.8 SSE 10 15 - - 0.0 - - - - - - -
01/02:30pm 32.6 SSE 9 16 - - 0.0 - - - - - - -
01/02:00pm 32.3 SE 9 15 - - 0.0 - - - - - - -
01/01:30pm 32.4 ESE 9 16 - - 0.0 - - - - - - -
01/01:00pm 32.4 SE 11 17 - - 0.0 - - - - - - -
01/12:30pm 31.2 SE 10 15 - - 0.0 - - - - - - -
01/12:00pm 30.6 SSE 9 14 - - 0.0 - - - - - - -
01/11:30am 30.3 ESE 9 13 - - 0.0 - - - - - - -
01/11:00am 29.6 ESE 8 12 - - 0.0 - - - - - - -
01/10:30am 29.0 ESE 6 10 - - 0.0 - - - - - - -
01/10:00am 27.7 ESE 9 12 - - 0.0 - - - - - - -
01/09:30am 26.8 SE 7 11 - - 0.0 - - - - - - -
01/09:00am 25.6 SE 9 11 - - 0.0 - - - - - - -
01/08:30am 24.2 SE 8 11 - - 0.0 - - - - - - -
01/08:00am 23.4 SE 6 9 - - 0.0 - - - - - - -
01/07:30am 20.9 SE 7 9 - - 0.0 - - - - - - -
01/07:00am 17.6 SSE 4 5 - - 0.0 - - - - - - -
01/06:30am 17.8 SSE 3 4 - - 0.0 - - - - - - -
01/06:00am 18.4 SSE 3 4 - - 0.0 - - - - - - -
01/05:30am 19.7 SSE 3 5 - - 0.0 - - - - - - -
01/05:00am 19.4 SSE 3 5 - - 0.0 - - - - - - -
01/04:30am 20.4 SE 6 7 - - 0.0 - - - - - - -
01/04:00am 22.2 SE 6 7 - - 0.0 - - - - - - -
01/03:30am 21.1 SSE 6 8 - - 0.0 - - - - - - -
01/03:00am 21.8 SSE 7 8 - - 0.0 - - - - - - -
01/02:30am 19.9 S 4 5 - - 0.0 - - - - - - -
01/02:00am 20.0 SSE 5 6 - - 0.0 - - - - - - -
01/01:30am 19.9 SSE 5 6 - - 0.0 - - - - - - -
01/01:00am 20.5 SSE 5 7 - - 0.0 - - - - - - -
01/12:30am 18.9 SSE 5 6 - - 0.0 - - - - - - -
01/12:00am 18.2 SSE 4 6 - - 0.0 - - - - - - -
 
Date/Time
CST
Temp
°C
Wind Pressure Rain since
9am
mm
Weather Cloud Vis
km
Sea
Height
m
Swell
Dir  Spd
kts
Gust
kts
hPa Trend Height
m
Period
s
Dir
30/11:30pm 18.1 SSE 4 5 - - 0.0 - - - - - - -
30/11:00pm 18.2 CALM 0 0 - - 0.0 - - - - - - -
30/10:30pm 18.7 CALM 0 0 - - 0.0 - - - - - - -
30/10:00pm 19.1 CALM 0 0 - - 0.0 - - - - - - -
30/09:30pm 19.8 CALM 0 0 - - 0.0 - - - - - - -
30/09:00pm 21.1 CALM 0 0 - - 0.0 - - - - - - -
30/08:30pm 21.1 S 3 5 - - 0.0 - - - - - - -
30/08:00pm 21.9 S 2 5 - - 0.0 - - - - - - -
30/07:30pm 22.9 S 1 4 - - 0.0 - - - - - - -
30/07:00pm 24.7 CALM 0 0 - - 0.0 - - - - - - -
30/06:30pm 26.8 NW 1 5 - - 0.0 - - - - - - -
30/06:00pm 28.7 CALM 0 4 - - 0.0 - - - - - - -
30/05:30pm 29.8 WNW 3 5 - - 0.0 - - - - - - -
30/05:00pm 32.0 ESE 2 7 - - 0.0 - - - - - - -
30/04:30pm 31.8 SSE 6 8 - - 0.0 - - - - - - -
30/04:00pm 32.3 SE 6 9 - - 0.0 - - - - - - -
30/03:30pm 31.9 E 5 7 - - 0.0 - - - - - - -
30/03:00pm 32.0 ESE 5 8 - - 0.0 - - - - - - -
30/02:30pm 31.4 ESE 4 7 - - 0.0 - - - - - - -
30/02:00pm 30.9 ENE 7 9 - - 0.0 - - - - - - -
30/01:30pm 30.1 E 7 9 - - 0.0 - - - - - - -
30/01:00pm 29.3 E 10 15 - - 0.0 - - - - - - -
30/12:30pm 29.2 E 10 15 - - 0.0 - - - - - - -
30/12:00pm 28.8 E 10 14 - - 0.0 - - - - - - -
30/11:30am 28.6 E 9 13 - - 0.0 - - - - - - -
30/11:00am 28.7 E 9 13 - - 0.0 - - - - - - -
30/10:30am 27.3 ESE 7 11 - - 0.0 - - - - - - -
30/10:00am 25.7 ESE 7 9 - - 0.0 - - - - - - -
30/09:30am 24.8 SE 7 10 - - 0.0 - - - - - - -
30/09:00am 24.3 SE 7 10 - - 0.0 - - - - - - -
30/08:30am 23.5 SSE 7 8 - - 0.0 - - - - - - -
30/08:00am 21.7 SSE 6 8 - - 0.0 - - - - - - -
30/07:30am 22.1 SE 7 9 - - 0.0 - - - - - - -
30/07:00am 21.9 SSE 7 9 - - 0.0 - - - - - - -
30/06:30am 22.3 SE 6 9 - - 0.0 - - - - - - -
30/06:00am 21.8 SSE 6 8 - - 0.0 - - - - - - -
30/05:30am 20.0 S 4 7 - - 0.0 - - - - - - -
30/05:00am 18.8 SSW 4 6 - - 0.0 - - - - - - -
30/04:30am 20.0 S 4 5 - - 0.0 - - - - - - -
30/04:00am 21.5 S 4 6 - - 0.0 - - - - - - -
30/03:30am 22.1 S 6 9 - - 0.0 - - - - - - -
30/03:00am 21.9 S 5 8 - - 0.0 - - - - - - -
30/02:30am 22.2 S 6 10 - - 0.0 - - - - - - -
30/02:00am 22.3 S 5 8 - - 0.0 - - - - - - -
30/01:30am 22.9 S 6 10 - - 0.0 - - - - - - -
30/01:00am 22.9 SSE 7 9 - - 0.0 - - - - - - -
30/12:30am 23.9 SSE 7 10 - - 0.0 - - - - - - -
30/12:00am 24.1 SSE 8 10 - - 0.0 - - - - - - -
 
Date/Time
CST
Temp
°C
Wind Pressure Rain since
9am
mm
Weather Cloud Vis
km
Sea
Height
m
Swell
Dir  Spd
kts
Gust
kts
hPa Trend Height
m
Period
s
Dir
29/11:30pm 23.9 S 7 9 - - 0.0 - - - - - - -
29/11:00pm 24.0 S 6 10 - - 0.0 - - - - - - -
29/10:30pm 23.9 S 6 10 - - 0.0 - - - - - - -
29/10:00pm 23.6 S 6 8 - - 0.0 - - - - - - -
29/09:30pm 23.0 S 6 8 - - 0.0 - - - - - - -
29/09:00pm 22.6 S 5 7 - - 0.0 - - - - - - -
29/08:30pm 23.0 SSW 5 8 - - 0.0 - - - - - - -
29/08:00pm 23.4 SSW 5 8 - - 0.0 - - - - - - -
29/07:30pm 23.9 SSW 5 7 - - 0.0 - - - - - - -
29/07:00pm 24.5 SSW 4 5 - - 0.0 - - - - - - -
29/06:30pm 26.0 SSW 4 7 - - 0.0 - - - - - - -
29/06:00pm 27.8 SSW 3 6 - - 0.0 - - - - - - -
29/05:30pm 29.0 S 5 7 - - 0.0 - - - - - - -
29/05:00pm 29.5 SSE 8 11 - - 0.0 - - - - - - -
29/04:30pm 30.6 SSE 8 12 - - 0.0 - - - - - - -
29/04:00pm 30.5 SSE 7 11 - - 0.0 - - - - - - -
29/03:30pm 30.8 SE 10 15 - - 0.0 - - - - - - -
29/03:00pm 31.0 SE 9 14 - - 0.0 - - - - - - -
29/02:30pm 30.5 SE 9 15 - - 0.0 - - - - - - -
29/02:00pm 30.5 SE 10 14 - - 0.0 - - - - - - -
29/01:30pm 31.0 ESE 10 16 - - 0.0 - - - - - - -

Other Formats:

Comma delimited format used in spreadsheet applications
http://www.bom.gov.au/fwo/IDD60701/IDD60701.95111.axf

JavaScript Object Notation format (JSON) in row-major order
http://www.bom.gov.au/fwo/IDD60701/IDD60701.95111.json